Time;durP1;ratioP1;P1;durP2;ratioP2;P2;SDS_P1;SDS_P2;PMS_P1;PMS_P2;Temp;Humidity;BMP_temperature;BMP_pressure;BME280_temperature;BME280_humidity;BME280_pressure;Samples;Min_cycle;Max_cycle;Signal;HPM_P1;HPM_P2
2022/08/21 00:01:02;;;;;;;12.67;3.83;;;20.80;57.90;;;;;;5014342;28;20205;-96
2022/08/21 00:03:38;;;;;;;12.30;4.10;;;20.80;58.10;;;;;;5014112;28;20225;-96
2022/08/21 00:06:10;;;;;;;9.53;2.93;;;20.70;58.30;;;;;;5013480;28;20572;-96
2022/08/21 00:08:38;;;;;;;10.17;2.20;;;20.70;58.40;;;;;;5016409;28;20318;-96
2022/08/21 00:11:12;;;;;;;9.57;3.50;;;20.60;58.30;;;;;;5017128;28;20209;-96
2022/08/21 00:13:52;;;;;;;8.50;3.37;;;20.60;58.80;;;;;;5013783;28;20228;-96
2022/08/21 00:16:21;;;;;;;7.87;2.90;;;20.50;58.90;;;;;;5007655;28;20209;-96
2022/08/21 00:18:52;;;;;;;8.33;2.70;;;20.50;58.60;;;;;;5008189;28;20206;-96
2022/08/21 00:21:22;;;;;;;12.53;4.20;;;20.50;58.90;;;;;;5000901;28;20206;-96
2022/08/21 00:24:07;;;;;;;18.53;5.90;;;20.40;58.90;;;;;;5010843;28;20213;-96
2022/08/21 00:26:35;;;;;;;16.03;5.73;;;20.40;59.40;;;;;;5013335;28;20212;-95
2022/08/21 00:29:04;;;;;;;15.40;5.37;;;20.30;58.80;;;;;;5004298;28;20201;-96
2022/08/21 00:31:32;;;;;;;9.97;3.70;;;20.30;59.00;;;;;;5014676;28;20208;-96
2022/08/21 00:34:06;;;;;;;8.70;3.23;;;20.30;59.10;;;;;;5005146;28;20213;-96
2022/08/21 00:36:37;;;;;;;9.70;3.83;;;20.30;59.70;;;;;;5004304;28;20198;-95
2022/08/21 00:39:11;;;;;;;7.37;2.80;;;20.20;59.50;;;;;;5015310;28;20198;-96
2022/08/21 00:41:40;;;;;;;11.70;3.83;;;20.20;59.80;;;;;;5018218;28;20217;-96
2022/08/21 00:44:10;;;;;;;8.03;3.00;;;20.10;59.60;;;;;;5017709;28;20204;-96
2022/08/21 00:46:38;;;;;;;12.13;3.90;;;20.10;59.70;;;;;;5003546;28;20221;-96
2022/08/21 00:49:08;;;;;;;10.60;3.77;;;20.10;59.70;;;;;;5010879;28;20208;-96
2022/08/21 00:51:41;;;;;;;8.10;3.20;;;20.10;60.00;;;;;;5001838;28;20300;-96
2022/08/21 00:54:09;;;;;;;9.10;3.43;;;20.10;60.10;;;;;;5014086;28;20216;-96
2022/08/21 00:56:40;;;;;;;15.27;4.23;;;20.00;60.00;;;;;;5007363;28;20626;-96
2022/08/21 00:59:12;;;;;;;17.93;4.50;;;20.00;60.00;;;;;;5011565;28;20227;-96
2022/08/21 01:01:39;;;;;;;9.93;3.33;;;20.00;60.30;;;;;;5016501;28;20605;-96
2022/08/21 01:04:16;;;;;;;15.43;4.63;;;20.00;60.00;;;;;;5018240;28;20649;-96
2022/08/21 01:06:48;;;;;;;10.07;3.33;;;20.00;60.70;;;;;;5007987;28;20316;-96
2022/08/21 01:09:28;;;;;;;11.57;3.43;;;19.90;60.30;;;;;;5018114;28;20219;-96
2022/08/21 01:12:00;;;;;;;9.73;2.63;;;19.80;60.30;;;;;;5017804;28;20232;-96
2022/08/21 01:14:28;;;;;;;9.10;3.43;;;19.80;60.60;;;;;;4999120;28;20291;-96
2022/08/21 01:16:57;;;;;;;9.83;3.70;;;19.80;60.60;;;;;;5030545;28;20201;-95
2022/08/21 01:19:27;;;;;;;20.57;6.27;;;19.80;60.80;;;;;;5024040;28;20501;-94
2022/08/21 01:21:59;;;;;;;10.63;3.83;;;19.80;61.10;;;;;;5027063;28;20226;-96
2022/08/21 01:24:41;;;;;;;10.67;3.20;;;19.70;61.00;;;;;;5021942;28;20201;-96
2022/08/21 01:27:09;;;;;;;6.77;3.03;;;19.70;61.60;;;;;;5020452;28;20236;-94
2022/08/21 01:29:42;;;;;;;14.23;4.70;;;19.70;60.90;;;;;;5027500;28;20208;-95
2022/08/21 01:32:18;;;;;;;9.17;3.70;;;19.70;61.20;;;;;;5015133;28;20258;-96
2022/08/21 01:34:53;;;;;;;8.83;3.30;;;19.60;61.40;;;;;;5032237;28;20207;-96
2022/08/21 01:37:23;;;;;;;11.23;4.20;;;19.60;61.70;;;;;;5033433;28;20192;-96
2022/08/21 01:40:03;;;;;;;10.03;3.70;;;19.60;61.50;;;;;;5034969;28;20231;-95
2022/08/21 01:42:40;;;;;;;11.40;3.87;;;19.60;62.10;;;;;;5028734;28;20230;-96
2022/08/21 01:45:19;;;;;;;7.17;2.90;;;19.50;62.80;;;;;;5026804;28;20184;-96
2022/08/21 01:47:47;;;;;;;5.93;2.97;;;19.50;62.20;;;;;;5017446;28;20219;-96
2022/08/21 01:50:16;;;;;;;16.10;5.40;;;19.50;61.70;;;;;;5017175;28;20219;-96
2022/08/21 01:52:49;;;;;;;14.30;5.03;;;19.40;61.80;;;;;;5027964;22;20232;-96
2022/08/21 01:55:19;;;;;;;9.23;3.37;;;19.40;62.20;;;;;;5021382;28;20694;-96
2022/08/21 01:57:50;;;;;;;6.30;2.63;;;19.40;62.10;;;;;;5033957;28;20194;-95
2022/08/21 02:00:22;;;;;;;9.67;3.57;;;19.30;62.20;;;;;;5048415;22;20258;-96
2022/08/21 02:02:51;;;;;;;8.40;3.07;;;19.30;62.30;;;;;;5024748;28;20743;-95
2022/08/21 02:05:20;;;;;;;7.07;3.00;;;19.30;62.20;;;;;;5022144;28;20205;-96
2022/08/21 02:07:52;;;;;;;10.83;3.07;;;19.30;62.40;;;;;;5015550;28;20715;-96
2022/08/21 02:10:25;;;;;;;9.70;3.27;;;19.20;62.50;;;;;;5019502;28;20202;-96
2022/08/21 02:13:00;;;;;;;12.83;4.07;;;19.20;62.60;;;;;;5019822;28;20238;-95
2022/08/21 02:15:32;;;;;;;5.67;2.70;;;19.20;62.90;;;;;;5006391;28;20301;-96
2022/08/21 02:18:02;;;;;;;10.43;3.80;;;19.20;62.90;;;;;;5015156;28;20588;-96
2022/08/21 02:20:32;;;;;;;9.63;3.73;;;19.10;62.70;;;;;;5018281;28;20235;-96
2022/08/21 02:23:02;;;;;;;10.67;3.87;;;19.10;62.90;;;;;;5018990;28;20296;-95
2022/08/21 02:25:32;;;;;;;10.87;3.10;;;19.10;63.00;;;;;;5018327;28;20693;-96
2022/08/21 02:28:03;;;;;;;11.33;3.87;;;19.10;63.20;;;;;;5013467;28;20213;-95
2022/08/21 02:30:45;;;;;;;11.20;3.77;;;19.00;63.00;;;;;;5011988;28;20206;-96
2022/08/21 02:33:24;;;;;;;11.93;4.10;;;19.00;63.60;;;;;;5013155;28;20203;-96
2022/08/21 02:38:38;;;;;;;8.00;3.57;;;19.00;63.40;;;;;;5020726;28;20208;-96
2022/08/21 02:41:10;;;;;;;12.27;3.80;;;19.00;63.70;;;;;;5019641;28;20224;-96
2022/08/21 02:43:38;;;;;;;12.40;4.30;;;18.90;63.90;;;;;;5009848;28;20241;-96
2022/08/21 02:46:19;;;;;;;10.83;3.67;;;18.90;63.70;;;;;;4998196;28;20665;-96
2022/08/21 02:48:57;;;;;;;12.13;3.97;;;18.80;64.40;;;;;;5012696;28;20233;-96
2022/08/21 02:51:31;;;;;;;12.63;4.43;;;18.90;63.90;;;;;;5016895;28;20270;-95
2022/08/21 02:54:00;;;;;;;9.27;3.67;;;18.80;63.90;;;;;;5017406;28;20205;-95
2022/08/21 02:56:30;;;;;;;8.57;3.10;;;18.80;64.40;;;;;;5013090;28;20230;-96
2022/08/21 02:58:58;;;;;;;5.60;3.10;;;18.80;64.50;;;;;;5013600;28;20662;-96
2022/08/21 03:01:55;;;;;;;10.87;3.63;;;18.80;64.40;;;;;;5023063;28;20231;-95
2022/08/21 03:04:24;;;;;;;10.63;4.17;;;18.80;65.20;;;;;;5022332;28;20267;-96
2022/08/21 03:06:52;;;;;;;8.90;4.07;;;18.80;64.40;;;;;;5011247;28;20221;-96
2022/08/21 03:09:25;;;;;;;8.80;3.13;;;18.70;64.30;;;;;;5003577;28;20204;-96
2022/08/21 03:11:59;;;;;;;5.87;2.90;;;18.70;65.00;;;;;;5007547;28;20212;-96
2022/08/21 03:14:27;;;;;;;10.90;4.13;;;18.70;65.20;;;;;;5020198;28;20235;-96
2022/08/21 03:16:55;;;;;;;9.73;3.43;;;18.70;64.90;;;;;;5016331;28;20215;-96
2022/08/21 03:19:23;;;;;;;12.37;4.40;;;18.70;64.90;;;;;;5018517;28;20210;-96
2022/08/21 03:21:54;;;;;;;10.03;3.90;;;18.70;65.00;;;;;;5018455;28;20767;-96
2022/08/21 03:24:40;;;;;;;12.30;4.37;;;18.70;65.40;;;;;;5007706;28;20292;-95
2022/08/21 03:29:52;;;;;;;10.67;3.70;;;18.60;65.40;;;;;;5023196;28;20576;-96
2022/08/21 03:32:21;;;;;;;9.90;3.30;;;18.60;65.30;;;;;;5019985;28;20743;-96
2022/08/21 03:34:48;;;;;;;12.17;4.10;;;18.60;65.50;;;;;;5019386;28;20239;-95
2022/08/21 03:40:03;;;;;;;14.60;4.50;;;18.60;66.10;;;;;;5023421;28;20240;-96
2022/08/21 03:42:34;;;;;;;9.00;3.40;;;18.50;65.90;;;;;;5013655;28;20215;-96
2022/08/21 03:45:04;;;;;;;11.30;4.10;;;18.50;66.00;;;;;;5021632;28;20228;-96
2022/08/21 03:47:34;;;;;;;9.10;3.80;;;18.50;66.10;;;;;;5012743;28;20205;-96
2022/08/21 03:50:07;;;;;;;9.37;3.60;;;18.50;66.00;;;;;;5014250;28;20256;-96
2022/08/21 03:52:35;;;;;;;7.57;3.20;;;18.50;66.40;;;;;;5019955;28;20257;-96
2022/08/21 03:55:06;;;;;;;11.93;4.57;;;18.50;66.30;;;;;;5019068;28;20237;-96
2022/08/21 03:57:35;;;;;;;16.50;4.67;;;18.50;66.70;;;;;;5018409;28;20957;-95
2022/08/21 04:00:08;;;;;;;8.20;3.93;;;18.50;66.80;;;;;;5016835;28;20209;-95
2022/08/21 04:02:36;;;;;;;14.03;5.73;;;18.50;66.80;;;;;;5023214;28;20223;-95
2022/08/21 04:07:56;;;;;;;11.27;4.23;;;18.40;66.90;;;;;;5021608;28;20225;-94
2022/08/21 04:10:31;;;;;;;13.90;4.40;;;18.40;66.80;;;;;;5017254;28;20206;-95
2022/08/21 04:13:00;;;;;;;8.27;3.67;;;18.40;67.20;;;;;;5019852;28;20789;-95
2022/08/21 04:15:28;;;;;;;11.10;4.17;;;18.40;67.00;;;;;;5019330;28;20200;-96
2022/08/21 04:20:47;;;;;;;11.57;4.67;;;18.40;67.60;;;;;;5031084;28;20214;-95
2022/08/21 04:23:25;;;;;;;10.43;4.40;;;18.30;67.40;;;;;;5034463;28;20258;-95
2022/08/21 04:25:59;;;;;;;10.93;3.73;;;18.40;68.20;;;;;;5018327;28;20212;-96
2022/08/21 04:28:36;;;;;;;9.17;3.60;;;18.30;68.00;;;;;;5018315;28;20652;-96
2022/08/21 04:31:08;;;;;;;9.80;3.87;;;18.30;68.30;;;;;;5016956;28;20300;-96
2022/08/21 04:33:42;;;;;;;8.63;4.07;;;18.30;67.90;;;;;;5021363;28;20667;-96
2022/08/21 04:36:20;;;;;;;6.27;3.60;;;18.30;68.50;;;;;;5022553;28;20749;-96
2022/08/21 04:38:48;;;;;;;11.27;3.80;;;18.30;68.70;;;;;;5008416;28;20211;-96
2022/08/21 04:41:31;;;;;;;14.87;4.03;;;18.30;68.30;;;;;;5023147;28;20229;-96
2022/08/21 04:44:08;;;;;;;12.80;4.57;;;18.30;69.50;;;;;;5022606;28;20231;-96
2022/08/21 04:49:22;;;;;;;11.40;4.77;;;18.30;68.80;;;;;;5011344;28;20287;-96
2022/08/21 04:52:17;;;;;;;13.07;5.17;;;18.20;69.10;;;;;;5010495;28;20668;-96
2022/08/21 04:55:21;;;;;;;11.17;4.37;;;18.20;70.10;;;;;;5024591;28;20210;-95
2022/08/21 04:57:53;;;;;;;13.53;5.13;;;18.30;70.40;;;;;;5027853;28;20216;-96
2022/08/21 05:00:29;;;;;;;12.03;4.93;;;18.20;69.50;;;;;;5014692;28;20237;-96
2022/08/21 05:20:59;;;;;;;6.87;3.40;;;18.20;71.00;;;;;;5019058;28;20232;-96
2022/08/21 05:23:35;;;;;;;6.60;3.30;;;18.30;70.90;;;;;;5013847;28;20201;-96
2022/08/21 05:26:13;;;;;;;10.60;4.20;;;18.30;71.10;;;;;;5022586;28;20209;-94
2022/08/21 05:28:44;;;;;;;8.67;3.67;;;18.30;71.50;;;;;;5021943;28;20209;-96
2022/08/21 05:31:25;;;;;;;16.40;5.53;;;18.30;71.70;;;;;;5023171;28;20207;-95
2022/08/21 05:34:06;;;;;;;12.30;4.00;;;18.30;72.40;;;;;;5011135;28;20196;-96
2022/08/21 05:36:35;;;;;;;11.93;4.90;;;18.40;72.50;;;;;;5025233;28;20287;-95
2022/08/21 05:39:25;;;;;;;10.20;4.30;;;18.40;72.00;;;;;;5028801;28;20218;-96
2022/08/21 05:41:59;;;;;;;9.17;3.50;;;18.40;71.90;;;;;;5031244;28;20241;-96
2022/08/21 05:47:10;;;;;;;10.43;4.63;;;18.40;72.40;;;;;;5024741;28;20201;-93
2022/08/21 05:49:58;;;;;;;16.50;4.80;;;18.40;72.70;;;;;;5039074;28;20190;-96
2022/08/21 05:52:31;;;;;;;7.47;3.97;;;18.40;73.90;;;;;;5039518;28;20181;-96
2022/08/21 05:55:00;;;;;;;9.40;3.73;;;18.40;74.20;;;;;;5037180;28;20209;-96
2022/08/21 05:57:32;;;;;;;7.73;3.83;;;18.50;73.80;;;;;;5040415;28;20228;-96
2022/08/21 06:00:22;;;;;;;6.63;4.10;;;18.50;74.10;;;;;;5038765;28;20209;-95
2022/08/21 06:06:39;;;;;;;7.23;3.80;;;18.60;75.30;;;;;;5030891;28;20228;-96
2022/08/21 06:12:41;;;;;;;7.73;3.57;;;18.60;75.40;;;;;;5030526;28;20218;-95
2022/08/21 06:18:34;;;;;;;9.50;3.77;;;18.70;76.50;;;;;;5033363;28;20244;-95
2022/08/21 06:21:19;;;;;;;11.33;3.80;;;18.80;76.50;;;;;;5031675;28;20208;-93
2022/08/21 06:24:05;;;;;;;12.57;4.70;;;18.80;77.70;;;;;;5027247;28;20176;-96
2022/08/21 06:32:24;;;;;;;13.90;4.93;;;18.90;77.20;;;;;;5033699;28;20195;-96
2022/08/21 06:34:56;;;;;;;9.70;3.67;;;19.00;77.80;;;;;;5036917;28;20202;-96
2022/08/21 06:37:41;;;;;;;11.47;5.27;;;19.10;77.80;;;;;;5033316;28;20208;-96
2022/08/21 06:40:19;;;;;;;13.87;5.07;;;19.10;78.40;;;;;;5029331;28;20255;-95
2022/08/21 06:43:21;;;;;;;13.20;3.90;;;19.20;78.20;;;;;;5032241;28;20236;-95
2022/08/21 06:46:11;;;;;;;9.57;3.97;;;19.30;79.40;;;;;;5033149;28;20188;-94
2022/08/21 06:54:48;;;;;;;10.63;4.43;;;19.50;79.10;;;;;;5034078;28;20203;-95
2022/08/21 07:09:39;;;;;;;8.63;4.10;;;19.90;78.10;;;;;;5026228;28;20706;-96
2022/08/21 07:12:20;;;;;;;10.13;3.63;;;20.00;78.80;;;;;;5019804;28;20231;-94
2022/08/21 07:21:08;;;;;;;12.00;4.13;;;20.30;78.40;;;;;;5027865;28;20200;-92
2022/08/21 07:26:42;;;;;;;12.13;4.90;;;20.50;78.50;;;;;;5030297;28;20204;-95
2022/08/21 07:29:17;;;;;;;9.53;4.00;;;20.60;77.90;;;;;;5030000;28;20205;-94
2022/08/21 07:31:50;;;;;;;9.40;3.90;;;20.60;78.60;;;;;;5033300;28;20224;-95
2022/08/21 07:34:45;;;;;;;10.23;4.20;;;20.70;77.80;;;;;;5028863;28;20285;-94
2022/08/21 07:37:24;;;;;;;14.47;5.07;;;20.80;78.50;;;;;;5028843;28;20231;-94
2022/08/21 07:48:44;;;;;;;10.63;4.17;;;21.10;77.00;;;;;;5016057;28;20248;-95
2022/08/21 07:51:24;;;;;;;7.93;3.77;;;21.30;76.90;;;;;;5028515;28;20185;-95
2022/08/21 07:59:45;;;;;;;15.33;5.13;;;21.50;76.40;;;;;;5024969;28;20240;-95
2022/08/21 08:02:25;;;;;;;14.13;5.20;;;21.50;75.80;;;;;;5025835;28;20253;-95
2022/08/21 08:05:03;;;;;;;12.07;4.80;;;21.60;76.50;;;;;;5006765;28;20206;-96
2022/08/21 08:07:34;;;;;;;11.27;4.20;;;21.70;76.00;;;;;;5016031;28;20197;-94
2022/08/21 08:10:06;;;;;;;13.70;5.07;;;21.70;75.50;;;;;;5009899;28;20278;-94
2022/08/21 08:12:36;;;;;;;9.33;3.60;;;21.80;75.70;;;;;;5010544;28;20226;-95
2022/08/21 08:15:13;;;;;;;9.97;4.40;;;21.80;75.20;;;;;;5022829;28;20200;-94
2022/08/21 08:17:42;;;;;;;10.27;3.70;;;21.90;75.10;;;;;;5031683;28;20209;-95
2022/08/21 08:20:21;;;;;;;12.87;4.87;;;21.90;75.10;;;;;;5029754;28;20205;-94
2022/08/21 08:22:49;;;;;;;8.20;4.00;;;22.00;75.20;;;;;;5018169;28;20213;-93
2022/08/21 08:25:22;;;;;;;14.77;5.80;;;22.10;75.00;;;;;;5019001;28;20209;-94
2022/08/21 08:27:49;;;;;;;9.57;4.07;;;22.10;75.60;;;;;;5025742;28;20201;-94
2022/08/21 08:30:23;;;;;;;11.20;3.83;;;22.20;74.70;;;;;;5025449;28;20256;-95
2022/08/21 08:32:51;;;;;;;19.50;6.20;;;22.20;75.20;;;;;;5022706;28;20277;-93
2022/08/21 08:35:21;;;;;;;8.47;3.33;;;22.40;74.90;;;;;;5024879;28;20201;-95
2022/08/21 08:37:55;;;;;;;7.47;3.07;;;22.40;74.30;;;;;;5023944;28;20210;-95
2022/08/21 08:40:43;;;;;;;12.67;4.03;;;22.50;74.10;;;;;;5024121;28;20201;-96
2022/08/21 08:43:26;;;;;;;12.33;4.90;;;22.60;73.40;;;;;;5021018;28;20244;-94
2022/08/21 08:46:06;;;;;;;10.73;3.30;;;22.70;73.20;;;;;;5026537;28;20222;-95
2022/08/21 08:51:46;;;;;;;7.00;2.50;;;22.90;72.00;;;;;;5028627;28;20195;-96
2022/08/21 08:57:39;;;;;;;10.90;3.40;;;23.00;72.80;;;;;;5030132;28;20284;-95
2022/08/21 09:00:39;;;;;;;13.30;3.50;;;23.10;71.30;;;;;;5027907;28;20210;-94
2022/08/21 09:03:12;;;;;;;9.13;3.00;;;23.20;71.10;;;;;;5025645;28;20196;-93
2022/08/21 09:09:13;;;;;;;8.73;2.60;;;23.40;70.60;;;;;;5020622;28;20212;-96
2022/08/21 09:11:53;;;;;;;11.20;3.43;;;23.60;70.00;;;;;;5018718;28;20232;-94
2022/08/21 09:14:33;;;;;;;15.63;4.43;;;23.70;69.70;;;;;;5039705;23;20320;-95
2022/08/21 09:17:33;;;;;;;10.27;2.63;;;23.90;69.80;;;;;;5029886;28;20238;-94
2022/08/21 09:20:18;;;;;;;7.90;2.87;;;24.10;69.40;;;;;;5025583;28;20663;-94
2022/08/21 09:25:27;;;;;;;7.83;2.70;;;24.40;68.60;;;;;;5042185;22;20735;-96
2022/08/21 09:28:15;;;;;;;13.73;2.87;;;24.60;68.50;;;;;;5036257;28;20201;-93
2022/08/21 09:30:44;;;;;;;8.73;2.67;;;24.80;67.50;;;;;;5026610;28;20577;-95
2022/08/21 09:33:17;;;;;;;5.30;1.87;;;25.00;67.30;;;;;;5039883;28;20225;-94
2022/08/21 09:35:57;;;;;;;8.30;2.73;;;25.10;66.60;;;;;;5039378;28;20200;-95
2022/08/21 09:38:38;;;;;;;7.70;2.70;;;25.40;64.80;;;;;;5038935;28;20203;-94
2022/08/21 09:41:09;;;;;;;9.20;3.40;;;25.50;63.90;;;;;;5033223;28;20201;-96
2022/08/21 09:43:40;;;;;;;14.30;3.83;;;25.70;64.80;;;;;;5030766;28;20327;-96
2022/08/21 09:49:12;;;;;;;8.27;2.13;;;26.00;62.70;;;;;;5026443;28;20205;-95
2022/08/21 09:51:53;;;;;;;7.33;2.40;;;26.10;63.50;;;;;;5034505;28;20209;-94
2022/08/21 09:54:28;;;;;;;9.10;2.87;;;26.20;60.50;;;;;;5035380;28;20201;-96
2022/08/21 10:09:34;;;;;;;8.50;2.50;;;26.80;59.60;;;;;;4932043;29;20218;-96
2022/08/21 10:12:55;;;;;;;7.83;2.37;;;26.80;58.90;;;;;;4929835;29;20237;-95
2022/08/21 10:16:00;;;;;;;7.20;2.47;;;26.90;58.00;;;;;;4921448;29;20227;-94
2022/08/21 10:18:41;;;;;;;9.30;3.60;;;26.90;57.50;;;;;;4918529;29;20726;-96
2022/08/21 10:21:19;;;;;;;12.80;3.67;;;26.90;58.30;;;;;;4979131;28;20202;-95
2022/08/21 10:23:57;;;;;;;14.03;4.90;;;26.90;58.10;;;;;;5018170;28;20355;-94
2022/08/21 10:26:43;;;;;;;8.03;2.63;;;27.00;57.70;;;;;;5016278;28;20201;-95
2022/08/21 10:29:24;;;;;;;7.60;2.23;;;27.00;57.50;;;;;;5035201;22;20240;-96
2022/08/21 10:32:03;;;;;;;6.20;2.53;;;27.00;57.40;;;;;;5044878;28;20200;-96
2022/08/21 10:34:40;;;;;;;8.03;2.87;;;27.00;57.30;;;;;;5042959;28;20657;-93
2022/08/21 10:37:23;;;;;;;9.03;3.50;;;27.00;57.20;;;;;;5037328;28;20193;-96
2022/08/21 10:40:06;;;;;;;8.93;2.70;;;27.00;56.80;;;;;;5027030;28;20205;-95
2022/08/21 10:42:50;;;;;;;5.87;2.20;;;27.00;56.50;;;;;;5032980;28;20247;-96
2022/08/21 10:45:33;;;;;;;6.87;2.53;;;27.10;56.50;;;;;;5023856;28;20641;-96
2022/08/21 10:48:05;;;;;;;6.07;2.27;;;27.00;56.40;;;;;;5035177;28;20204;-95
2022/08/21 10:50:41;;;;;;;9.33;3.13;;;27.10;56.60;;;;;;5028970;28;20215;-95
2022/08/21 10:53:31;;;;;;;7.30;2.20;;;27.10;56.50;;;;;;5032011;28;20194;-96
2022/08/21 10:56:06;;;;;;;6.80;2.33;;;27.10;56.20;;;;;;5035846;28;20251;-95
2022/08/21 10:58:46;;;;;;;8.20;2.77;;;27.10;56.50;;;;;;5034374;28;20370;-96
2022/08/21 11:01:19;;;;;;;6.03;2.53;;;27.20;56.50;;;;;;5018420;28;20232;-96
2022/08/21 11:04:01;;;;;;;10.07;3.80;;;27.20;56.50;;;;;;5016379;28;20221;-95
2022/08/21 11:06:34;;;;;;;2.77;1.50;;;27.20;56.20;;;;;;4996019;28;20250;-95
2022/08/21 11:09:14;;;;;;;9.90;3.30;;;27.20;56.50;;;;;;4998069;28;20207;-95
2022/08/21 11:11:48;;;;;;;6.37;2.83;;;27.30;55.90;;;;;;5017920;28;20190;-94
2022/08/21 11:14:27;;;;;;;6.40;2.77;;;27.40;56.50;;;;;;5016794;28;20190;-94
2022/08/21 11:17:01;;;;;;;7.03;3.17;;;27.40;55.60;;;;;;4999858;28;20190;-95
2022/08/21 11:19:35;;;;;;;9.60;2.53;;;27.50;55.80;;;;;;5002038;28;20197;-94
2022/08/21 11:22:11;;;;;;;8.63;3.27;;;27.50;55.80;;;;;;5017289;28;20201;-96
2022/08/21 11:24:49;;;;;;;5.67;2.33;;;27.50;55.70;;;;;;5014517;28;20261;-96
2022/08/21 11:27:41;;;;;;;8.07;2.73;;;27.60;55.60;;;;;;5015778;28;20208;-93
2022/08/21 11:30:14;;;;;;;5.20;2.53;;;27.60;54.90;;;;;;5019730;28;20213;-96
2022/08/21 11:33:07;;;;;;;8.23;2.77;;;27.70;55.10;;;;;;5017067;28;20236;-96
2022/08/21 11:35:43;;;;;;;8.13;3.03;;;27.70;55.10;;;;;;5006362;28;20238;-95
2022/08/21 11:38:34;;;;;;;6.03;2.50;;;27.80;54.90;;;;;;5005349;28;20216;-94
2022/08/21 11:41:17;;;;;;;5.53;2.03;;;27.80;54.70;;;;;;5005945;28;20587;-94
2022/08/21 11:43:47;;;;;;;8.83;3.00;;;27.90;54.60;;;;;;5014430;28;20221;-96
2022/08/21 11:46:24;;;;;;;10.17;3.07;;;27.90;54.80;;;;;;5014218;28;20639;-96
2022/08/21 11:49:03;;;;;;;11.27;3.73;;;28.00;53.90;;;;;;5007455;28;20680;-93
2022/08/21 11:51:46;;;;;;;7.80;2.80;;;28.00;53.90;;;;;;5016046;28;20267;-93
2022/08/21 11:54:24;;;;;;;8.73;3.33;;;28.10;54.10;;;;;;5012032;28;20251;-93
2022/08/21 11:57:00;;;;;;;11.17;2.87;;;28.00;53.50;;;;;;5011160;28;20209;-92
2022/08/21 11:59:40;;;;;;;6.37;2.00;;;28.00;53.10;;;;;;5010398;28;20201;-95
2022/08/21 12:02:16;;;;;;;5.80;2.40;;;28.00;53.20;;;;;;4999835;28;20662;-95
2022/08/21 12:04:47;;;;;;;7.97;3.20;;;28.00;53.30;;;;;;5005788;28;20201;-91
2022/08/21 12:07:37;;;;;;;9.70;3.50;;;28.00;53.20;;;;;;5017152;28;20267;-95
2022/08/21 12:10:08;;;;;;;10.00;3.60;;;28.00;52.90;;;;;;5032888;28;20209;-95
2022/08/21 12:12:38;;;;;;;9.57;3.10;;;28.00;53.20;;;;;;5014552;28;20271;-93
2022/08/21 12:15:23;;;;;;;8.07;2.97;;;27.90;53.20;;;;;;5014650;28;20205;-94
2022/08/21 12:17:59;;;;;;;11.87;3.70;;;27.90;52.90;;;;;;5012914;28;20206;-93
2022/08/21 12:20:44;;;;;;;7.43;2.60;;;27.80;52.50;;;;;;5011611;28;20212;-95
2022/08/21 12:23:26;;;;;;;7.83;2.50;;;27.80;52.50;;;;;;5009431;28;20220;-96
2022/08/21 12:26:26;;;;;;;5.87;2.10;;;27.70;53.00;;;;;;5017562;28;20198;-92
2022/08/21 12:29:13;;;;;;;6.90;3.27;;;27.70;53.00;;;;;;5022899;28;20220;-96
2022/08/21 12:31:58;;;;;;;8.17;2.63;;;27.70;53.00;;;;;;5013246;28;20584;-95
2022/08/21 12:34:35;;;;;;;7.10;2.63;;;27.70;53.50;;;;;;5006318;28;20285;-95
2022/08/21 12:37:08;;;;;;;8.03;2.43;;;27.70;53.20;;;;;;5015797;28;20197;-96
2022/08/21 12:39:39;;;;;;;6.13;2.57;;;27.80;53.50;;;;;;5005340;28;20495;-93
2022/08/21 12:42:16;;;;;;;6.90;2.73;;;27.90;53.40;;;;;;5007351;28;20216;-92
2022/08/21 12:44:49;;;;;;;9.03;3.03;;;28.00;53.50;;;;;;5023921;28;20228;-96
2022/08/21 12:47:21;;;;;;;3.93;1.90;;;28.00;53.50;;;;;;5027053;28;20220;-95
2022/08/21 12:50:10;;;;;;;8.87;3.23;;;28.20;53.70;;;;;;5018517;28;20202;-96
2022/08/21 12:52:44;;;;;;;8.77;3.20;;;28.30;53.10;;;;;;5015060;28;20280;-96
2022/08/21 12:57:56;;;;;;;8.67;3.03;;;28.50;53.40;;;;;;5021457;28;20206;-96
2022/08/21 13:00:25;;;;;;;8.17;3.00;;;28.60;53.10;;;;;;5026230;28;20225;-96
2022/08/21 13:02:59;;;;;;;4.37;1.80;;;28.70;52.80;;;;;;5021014;28;20229;-95
2022/08/21 13:05:36;;;;;;;12.20;3.20;;;28.80;51.90;;;;;;5017476;28;20248;-96
2022/08/21 13:08:07;;;;;;;9.83;2.70;;;28.90;52.00;;;;;;5017003;28;20208;-95
2022/08/21 13:10:38;;;;;;;9.73;3.10;;;29.00;52.20;;;;;;5015425;28;20707;-96
2022/08/21 13:13:19;;;;;;;5.87;2.47;;;29.00;52.30;;;;;;5020498;28;20200;-96
2022/08/21 13:18:59;;;;;;;9.07;3.57;;;29.30;51.50;;;;;;5025428;28;20300;-96
2022/08/21 13:21:33;;;;;;;7.80;3.23;;;29.40;51.70;;;;;;5013251;28;20974;-95
2022/08/21 13:24:20;;;;;;;11.00;3.80;;;29.60;51.30;;;;;;5011252;28;20209;-96
2022/08/21 13:26:52;;;;;;;8.77;3.20;;;29.60;50.50;;;;;;5016330;28;20304;-95
2022/08/21 13:29:22;;;;;;;7.50;3.20;;;29.70;51.30;;;;;;5017653;28;20220;-96
2022/08/21 13:31:54;;;;;;;12.47;3.23;;;29.70;50.90;;;;;;5014012;28;20201;-96
2022/08/21 13:34:35;;;;;;;8.80;3.73;;;29.70;50.40;;;;;;5012836;28;20216;-93
2022/08/21 13:37:27;;;;;;;11.10;3.10;;;29.70;50.00;;;;;;5015814;28;20208;-96
2022/08/21 13:39:58;;;;;;;9.13;2.30;;;29.70;50.10;;;;;;5015255;28;20269;-95
2022/08/21 13:42:30;;;;;;;8.63;2.90;;;29.60;50.50;;;;;;5015716;28;20205;-95
2022/08/21 13:44:58;;;;;;;7.97;2.80;;;29.50;50.40;;;;;;5019011;28;20247;-96
2022/08/21 13:47:56;;;;;;;11.67;3.30;;;29.40;50.60;;;;;;5023226;28;20190;-94
2022/08/21 13:50:41;;;;;;;12.80;3.10;;;29.40;50.10;;;;;;5016136;28;20197;-95
2022/08/21 13:53:30;;;;;;;7.80;2.57;;;29.30;50.60;;;;;;5010115;28;20281;-96
2022/08/21 13:58:51;;;;;;;9.50;3.47;;;29.10;50.90;;;;;;5021428;28;20209;-96
2022/08/21 14:01:37;;;;;;;7.63;2.87;;;29.10;50.80;;;;;;5023822;28;20196;-96
2022/08/21 14:04:07;;;;;;;7.63;2.87;;;29.00;50.20;;;;;;5020552;28;20232;-96
2022/08/21 14:06:36;;;;;;;7.07;2.60;;;28.90;50.70;;;;;;5032729;28;20212;-96
2022/08/21 14:09:28;;;;;;;9.63;3.07;;;28.90;50.80;;;;;;5025434;28;20193;-95
2022/08/21 14:11:59;;;;;;;8.27;3.10;;;28.80;50.80;;;;;;5028325;28;20197;-96
2022/08/21 14:14:34;;;;;;;8.87;2.40;;;28.80;50.90;;;;;;5024994;28;20196;-95
2022/08/21 14:17:15;;;;;;;6.90;2.60;;;28.70;51.00;;;;;;5027164;28;20249;-95
2022/08/21 14:19:49;;;;;;;7.77;2.70;;;28.70;51.10;;;;;;5027761;28;20237;-96
2022/08/21 14:22:38;;;;;;;7.13;2.73;;;28.60;50.80;;;;;;5026863;28;20229;-95
2022/08/21 14:28:32;;;;;;;6.27;2.60;;;28.60;51.10;;;;;;5075688;28;20239;-94
2022/08/21 14:31:34;;;;;;;11.10;4.03;;;28.50;51.60;;;;;;5181260;22;20217;-93
2022/08/21 14:34:17;;;;;;;7.60;2.43;;;28.50;51.80;;;;;;5044962;28;20276;-93
2022/08/21 14:36:51;;;;;;;7.57;2.07;;;28.50;51.90;;;;;;5031876;28;20208;-94
2022/08/21 14:39:31;;;;;;;9.77;3.40;;;28.50;51.70;;;;;;5046790;28;20211;-96
2022/08/21 14:42:10;;;;;;;4.60;2.10;;;28.50;51.70;;;;;;5050495;28;20284;-96
2022/08/21 14:45:05;;;;;;;6.10;1.97;;;28.60;52.10;;;;;;5046279;28;20216;-96
2022/08/21 14:47:34;;;;;;;6.57;2.83;;;28.60;52.00;;;;;;5050148;28;20204;-94
2022/08/21 14:50:10;;;;;;;7.07;1.97;;;28.70;52.10;;;;;;5052707;28;20197;-95
2022/08/21 14:52:52;;;;;;;6.53;1.83;;;28.70;51.60;;;;;;5051127;28;20213;-96
2022/08/21 14:55:26;;;;;;;10.83;2.47;;;28.70;52.00;;;;;;5048144;28;20209;-94
2022/08/21 14:57:57;;;;;;;9.30;3.03;;;28.70;51.90;;;;;;5041853;28;20256;-96
2022/08/21 15:00:26;;;;;;;10.57;4.17;;;28.70;51.80;;;;;;5030616;28;20220;-95
2022/08/21 15:03:21;;;;;;;6.97;2.57;;;28.70;51.70;;;;;;5046821;28;20185;-94
2022/08/21 15:05:50;;;;;;;6.73;2.57;;;28.70;51.70;;;;;;5052968;28;20253;-95
2022/08/21 15:08:20;;;;;;;9.97;3.07;;;28.70;51.90;;;;;;5055920;28;20224;-95
2022/08/21 15:10:57;;;;;;;7.70;2.83;;;28.70;52.00;;;;;;5047771;28;20209;-95
2022/08/21 15:13:25;;;;;;;7.60;3.10;;;28.70;52.50;;;;;;5049021;28;20204;-94
2022/08/21 15:15:56;;;;;;;7.23;2.10;;;28.70;52.00;;;;;;5041733;28;20205;-96
2022/08/21 15:18:51;;;;;;;6.33;2.57;;;28.80;52.20;;;;;;5043469;28;20205;-94
2022/08/21 15:21:35;;;;;;;10.93;3.13;;;28.80;52.00;;;;;;5039352;28;20370;-96
2022/08/21 15:24:18;;;;;;;5.70;2.40;;;28.90;52.00;;;;;;5043443;28;20232;-95
2022/08/21 15:26:54;;;;;;;7.00;2.83;;;28.90;52.10;;;;;;5038671;28;20236;-96
2022/08/21 15:29:22;;;;;;;9.50;3.07;;;28.90;51.80;;;;;;5030466;28;20204;-95
2022/08/21 15:31:56;;;;;;;11.57;4.33;;;29.00;52.00;;;;;;5036670;28;20208;-96
2022/08/21 15:34:27;;;;;;;6.57;2.67;;;29.00;52.00;;;;;;5032977;28;20217;-96
2022/08/21 15:36:57;;;;;;;12.97;3.67;;;29.00;51.70;;;;;;5031855;28;20922;-96
2022/08/21 15:39:26;;;;;;;10.97;3.73;;;29.00;51.70;;;;;;5033552;28;20201;-95
2022/08/21 15:42:17;;;;;;;8.20;2.73;;;29.00;51.80;;;;;;5040569;28;20243;-96
2022/08/21 15:44:45;;;;;;;6.50;2.93;;;29.00;51.70;;;;;;5039005;28;20235;-95